sensor_id;sensor_type;location;lat;lon;timestamp;temperature;humidity
74513;DHT22;62992;52.052;8.550;2022-10-26T00:01:15;8.80;99.90
74513;DHT22;62992;52.052;8.550;2022-10-26T00:03:59;8.80;99.90
74513;DHT22;62992;52.052;8.550;2022-10-26T00:06:43;8.80;99.90
74513;DHT22;62992;52.052;8.550;2022-10-26T00:09:27;8.80;99.90
74513;DHT22;62992;52.052;8.550;2022-10-26T00:12:11;8.80;99.90
74513;DHT22;62992;52.052;8.550;2022-10-26T00:14:56;8.80;99.90
74513;DHT22;62992;52.052;8.550;2022-10-26T00:17:40;8.80;99.90
74513;DHT22;62992;52.052;8.550;2022-10-26T00:20:24;8.80;99.90
74513;DHT22;62992;52.052;8.550;2022-10-26T00:23:08;8.70;99.90
74513;DHT22;62992;52.052;8.550;2022-10-26T00:25:56;8.70;99.90
74513;DHT22;62992;52.052;8.550;2022-10-26T00:28:40;8.70;99.90
74513;DHT22;62992;52.052;8.550;2022-10-26T00:31:24;8.70;99.90
74513;DHT22;62992;52.052;8.550;2022-10-26T00:34:10;8.70;99.90
74513;DHT22;62992;52.052;8.550;2022-10-26T00:36:54;8.80;99.90
74513;DHT22;62992;52.052;8.550;2022-10-26T00:39:38;8.70;99.90
74513;DHT22;62992;52.052;8.550;2022-10-26T00:42:22;8.80;99.90
74513;DHT22;62992;52.052;8.550;2022-10-26T00:45:27;8.70;99.90
74513;DHT22;62992;52.052;8.550;2022-10-26T00:48:30;8.70;99.90
74513;DHT22;62992;52.052;8.550;2022-10-26T00:51:37;8.70;99.90
74513;DHT22;62992;52.052;8.550;2022-10-26T00:54:22;8.60;99.90
74513;DHT22;62992;52.052;8.550;2022-10-26T00:57:06;8.60;99.90
74513;DHT22;62992;52.052;8.550;2022-10-26T00:59:52;8.50;99.90
74513;DHT22;62992;52.052;8.550;2022-10-26T01:02:39;8.50;99.90
74513;DHT22;62992;52.052;8.550;2022-10-26T01:05:24;8.50;99.90
74513;DHT22;62992;52.052;8.550;2022-10-26T01:08:09;8.50;99.90
74513;DHT22;62992;52.052;8.550;2022-10-26T01:10:55;8.40;99.90
74513;DHT22;62992;52.052;8.550;2022-10-26T01:13:41;8.50;99.90
74513;DHT22;62992;52.052;8.550;2022-10-26T01:22:56;8.50;99.90
74513;DHT22;62992;52.052;8.550;2022-10-26T01:26:29;8.50;99.90
74513;DHT22;62992;52.052;8.550;2022-10-26T01:29:29;8.50;99.90
74513;DHT22;62992;52.052;8.550;2022-10-26T01:32:40;8.60;99.90
74513;DHT22;62992;52.052;8.550;2022-10-26T01:35:31;8.50;99.90
74513;DHT22;62992;52.052;8.550;2022-10-26T01:41:36;8.50;99.90
74513;DHT22;62992;52.052;8.550;2022-10-26T01:44:38;8.60;99.90
74513;DHT22;62992;52.052;8.550;2022-10-26T01:47:26;8.50;99.90
74513;DHT22;62992;52.052;8.550;2022-10-26T01:50:13;8.50;99.90
74513;DHT22;62992;52.052;8.550;2022-10-26T01:52:58;8.50;99.90
74513;DHT22;62992;52.052;8.550;2022-10-26T01:55:50;8.60;99.90
74513;DHT22;62992;52.052;8.550;2022-10-26T02:08:06;8.60;99.90
74513;DHT22;62992;52.052;8.550;2022-10-26T02:17:22;8.50;99.90
74513;DHT22;62992;52.052;8.550;2022-10-26T02:20:15;8.70;99.90
74513;DHT22;62992;52.052;8.550;2022-10-26T02:23:03;8.70;99.90
74513;DHT22;62992;52.052;8.550;2022-10-26T02:25:52;8.80;99.90
74513;DHT22;62992;52.052;8.550;2022-10-26T02:28:41;8.80;99.90
74513;DHT22;62992;52.052;8.550;2022-10-26T02:31:28;8.70;99.90
74513;DHT22;62992;52.052;8.550;2022-10-26T02:34:17;8.70;99.90
74513;DHT22;62992;52.052;8.550;2022-10-26T02:37:04;8.70;99.90
74513;DHT22;62992;52.052;8.550;2022-10-26T02:39:50;8.70;99.90
74513;DHT22;62992;52.052;8.550;2022-10-26T02:42:36;8.70;99.90
74513;DHT22;62992;52.052;8.550;2022-10-26T02:45:28;8.70;99.90
74513;DHT22;62992;52.052;8.550;2022-10-26T02:48:14;8.70;99.90
74513;DHT22;62992;52.052;8.550;2022-10-26T02:51:33;8.70;99.90
74513;DHT22;62992;52.052;8.550;2022-10-26T02:57:19;8.60;99.90
74513;DHT22;62992;52.052;8.550;2022-10-26T03:00:08;8.60;99.90
74513;DHT22;62992;52.052;8.550;2022-10-26T03:02:55;8.50;99.90
74513;DHT22;62992;52.052;8.550;2022-10-26T03:05:45;8.50;99.90
74513;DHT22;62992;52.052;8.550;2022-10-26T03:08:29;8.40;99.90
74513;DHT22;62992;52.052;8.550;2022-10-26T03:11:14;8.50;99.90
74513;DHT22;62992;52.052;8.550;2022-10-26T03:13:58;8.40;99.90
74513;DHT22;62992;52.052;8.550;2022-10-26T03:16:42;8.40;99.90
74513;DHT22;62992;52.052;8.550;2022-10-26T03:19:26;8.40;99.90
74513;DHT22;62992;52.052;8.550;2022-10-26T03:22:10;8.30;99.90
74513;DHT22;62992;52.052;8.550;2022-10-26T03:24:54;8.30;99.90
74513;DHT22;62992;52.052;8.550;2022-10-26T03:27:38;8.30;99.90
74513;DHT22;62992;52.052;8.550;2022-10-26T03:30:22;8.30;99.90
74513;DHT22;62992;52.052;8.550;2022-10-26T03:33:06;8.30;99.90
74513;DHT22;62992;52.052;8.550;2022-10-26T03:35:54;8.30;99.90
74513;DHT22;62992;52.052;8.550;2022-10-26T03:38:39;8.30;99.90
74513;DHT22;62992;52.052;8.550;2022-10-26T03:41:23;8.20;99.90
74513;DHT22;62992;52.052;8.550;2022-10-26T03:44:07;8.20;99.90
74513;DHT22;62992;52.052;8.550;2022-10-26T03:46:51;8.20;99.90
74513;DHT22;62992;52.052;8.550;2022-10-26T03:49:35;8.20;99.90
74513;DHT22;62992;52.052;8.550;2022-10-26T03:52:19;8.10;99.90
74513;DHT22;62992;52.052;8.550;2022-10-26T03:55:04;8.10;99.90
74513;DHT22;62992;52.052;8.550;2022-10-26T03:57:48;8.20;99.90
74513;DHT22;62992;52.052;8.550;2022-10-26T04:00:32;8.20;99.90
74513;DHT22;62992;52.052;8.550;2022-10-26T04:03:16;8.20;99.90
74513;DHT22;62992;52.052;8.550;2022-10-26T04:06:02;8.30;99.90
74513;DHT22;62992;52.052;8.550;2022-10-26T04:08:46;8.30;99.90
74513;DHT22;62992;52.052;8.550;2022-10-26T04:11:30;8.30;99.90
74513;DHT22;62992;52.052;8.550;2022-10-26T04:14:15;8.30;99.90
74513;DHT22;62992;52.052;8.550;2022-10-26T04:16:59;8.40;99.90
74513;DHT22;62992;52.052;8.550;2022-10-26T04:19:43;8.40;99.90
74513;DHT22;62992;52.052;8.550;2022-10-26T04:22:27;8.50;99.90
74513;DHT22;62992;52.052;8.550;2022-10-26T04:25:11;8.50;99.90
74513;DHT22;62992;52.052;8.550;2022-10-26T04:27:56;8.50;99.90
74513;DHT22;62992;52.052;8.550;2022-10-26T04:30:41;8.50;99.90
74513;DHT22;62992;52.052;8.550;2022-10-26T04:33:25;8.50;99.90
74513;DHT22;62992;52.052;8.550;2022-10-26T04:36:09;8.50;99.90
74513;DHT22;62992;52.052;8.550;2022-10-26T04:38:53;8.50;99.90
74513;DHT22;62992;52.052;8.550;2022-10-26T04:41:37;8.40;99.90
74513;DHT22;62992;52.052;8.550;2022-10-26T04:44:22;8.40;99.90
74513;DHT22;62992;52.052;8.550;2022-10-26T04:47:06;8.30;99.90
74513;DHT22;62992;52.052;8.550;2022-10-26T04:49:50;8.30;99.90
74513;DHT22;62992;52.052;8.550;2022-10-26T04:52:34;8.30;99.90
74513;DHT22;62992;52.052;8.550;2022-10-26T04:55:19;8.30;99.90
74513;DHT22;62992;52.052;8.550;2022-10-26T04:58:03;8.30;99.90
74513;DHT22;62992;52.052;8.550;2022-10-26T05:00:47;8.30;99.90
74513;DHT22;62992;52.052;8.550;2022-10-26T05:03:32;8.40;99.90
74513;DHT22;62992;52.052;8.550;2022-10-26T05:06:16;8.40;99.90
74513;DHT22;62992;52.052;8.550;2022-10-26T05:09:01;8.40;99.90
74513;DHT22;62992;52.052;8.550;2022-10-26T05:11:45;8.40;99.90
74513;DHT22;62992;52.052;8.550;2022-10-26T05:14:29;8.40;99.90
74513;DHT22;62992;52.052;8.550;2022-10-26T05:17:13;8.40;99.90
74513;DHT22;62992;52.052;8.550;2022-10-26T05:19:57;8.50;99.90
74513;DHT22;62992;52.052;8.550;2022-10-26T05:22:43;8.50;99.90
74513;DHT22;62992;52.052;8.550;2022-10-26T05:25:36;8.50;99.90
74513;DHT22;62992;52.052;8.550;2022-10-26T05:28:20;8.50;99.90
74513;DHT22;62992;52.052;8.550;2022-10-26T05:31:04;8.50;99.90
74513;DHT22;62992;52.052;8.550;2022-10-26T05:33:49;8.50;99.90
74513;DHT22;62992;52.052;8.550;2022-10-26T05:36:34;8.50;99.90
74513;DHT22;62992;52.052;8.550;2022-10-26T05:39:17;8.50;99.90
74513;DHT22;62992;52.052;8.550;2022-10-26T05:42:02;8.60;99.90
74513;DHT22;62992;52.052;8.550;2022-10-26T05:44:46;8.50;99.90
74513;DHT22;62992;52.052;8.550;2022-10-26T05:47:30;8.60;99.90
74513;DHT22;62992;52.052;8.550;2022-10-26T05:50:14;8.60;99.90
74513;DHT22;62992;52.052;8.550;2022-10-26T05:52:58;8.70;99.90
74513;DHT22;62992;52.052;8.550;2022-10-26T05:55:42;8.70;99.90
74513;DHT22;62992;52.052;8.550;2022-10-26T05:58:27;8.70;99.90
74513;DHT22;62992;52.052;8.550;2022-10-26T06:01:39;8.80;99.90
74513;DHT22;62992;52.052;8.550;2022-10-26T06:04:39;8.80;99.90
74513;DHT22;62992;52.052;8.550;2022-10-26T06:07:24;8.80;99.90
74513;DHT22;62992;52.052;8.550;2022-10-26T06:10:10;8.90;99.90
74513;DHT22;62992;52.052;8.550;2022-10-26T06:12:55;8.90;99.90
74513;DHT22;62992;52.052;8.550;2022-10-26T06:18:45;9.00;99.90
74513;DHT22;62992;52.052;8.550;2022-10-26T06:27:41;9.10;99.90
74513;DHT22;62992;52.052;8.550;2022-10-26T06:30:27;9.10;99.90
74513;DHT22;62992;52.052;8.550;2022-10-26T06:33:12;9.10;99.90
74513;DHT22;62992;52.052;8.550;2022-10-26T06:36:19;9.20;99.90
74513;DHT22;62992;52.052;8.550;2022-10-26T06:39:07;9.20;99.90
74513;DHT22;62992;52.052;8.550;2022-10-26T06:41:52;9.30;99.90
74513;DHT22;62992;52.052;8.550;2022-10-26T06:44:37;9.30;99.90
74513;DHT22;62992;52.052;8.550;2022-10-26T06:47:28;9.40;99.90
74513;DHT22;62992;52.052;8.550;2022-10-26T06:56:05;9.40;99.90
74513;DHT22;62992;52.052;8.550;2022-10-26T06:58:51;9.50;99.90
74513;DHT22;62992;52.052;8.550;2022-10-26T07:01:36;9.50;99.90
74513;DHT22;62992;52.052;8.550;2022-10-26T07:04:21;9.50;99.90
74513;DHT22;62992;52.052;8.550;2022-10-26T07:07:04;9.50;99.90
74513;DHT22;62992;52.052;8.550;2022-10-26T07:09:49;9.50;99.90
74513;DHT22;62992;52.052;8.550;2022-10-26T07:12:33;9.60;99.90
74513;DHT22;62992;52.052;8.550;2022-10-26T07:15:18;9.60;99.90
74513;DHT22;62992;52.052;8.550;2022-10-26T07:18:03;9.70;99.90
74513;DHT22;62992;52.052;8.550;2022-10-26T07:20:51;9.70;99.90
74513;DHT22;62992;52.052;8.550;2022-10-26T07:23:35;9.80;99.90
74513;DHT22;62992;52.052;8.550;2022-10-26T07:26:19;9.90;99.90
74513;DHT22;62992;52.052;8.550;2022-10-26T07:29:03;9.80;99.90
74513;DHT22;62992;52.052;8.550;2022-10-26T07:31:47;9.90;99.90
74513;DHT22;62992;52.052;8.550;2022-10-26T07:34:31;10.00;99.90
74513;DHT22;62992;52.052;8.550;2022-10-26T07:37:15;10.00;99.90
74513;DHT22;62992;52.052;8.550;2022-10-26T07:39:59;10.20;99.90
74513;DHT22;62992;52.052;8.550;2022-10-26T07:42:43;10.40;99.90
74513;DHT22;62992;52.052;8.550;2022-10-26T07:45:28;10.70;99.90
74513;DHT22;62992;52.052;8.550;2022-10-26T07:48:12;10.90;99.90
74513;DHT22;62992;52.052;8.550;2022-10-26T07:50:56;11.20;99.90
74513;DHT22;62992;52.052;8.550;2022-10-26T07:53:40;11.50;99.90
74513;DHT22;62992;52.052;8.550;2022-10-26T07:56:24;11.50;99.90
74513;DHT22;62992;52.052;8.550;2022-10-26T07:59:12;12.70;99.90
74513;DHT22;62992;52.052;8.550;2022-10-26T08:01:57;16.10;99.90
74513;DHT22;62992;52.052;8.550;2022-10-26T08:04:41;18.40;99.90
74513;DHT22;62992;52.052;8.550;2022-10-26T08:07:25;19.70;99.90
74513;DHT22;62992;52.052;8.550;2022-10-26T08:10:10;19.50;99.90
74513;DHT22;62992;52.052;8.550;2022-10-26T08:12:54;18.90;99.90
74513;DHT22;62992;52.052;8.550;2022-10-26T08:15:39;18.50;99.90
74513;DHT22;62992;52.052;8.550;2022-10-26T08:18:23;19.60;99.90
74513;DHT22;62992;52.052;8.550;2022-10-26T08:21:11;17.10;99.90
74513;DHT22;62992;52.052;8.550;2022-10-26T08:23:55;15.10;99.90
74513;DHT22;62992;52.052;8.550;2022-10-26T08:26:40;14.10;99.90
74513;DHT22;62992;52.052;8.550;2022-10-26T08:29:25;13.70;99.90
74513;DHT22;62992;52.052;8.550;2022-10-26T08:32:09;13.50;99.90
74513;DHT22;62992;52.052;8.550;2022-10-26T08:34:53;13.50;99.90
74513;DHT22;62992;52.052;8.550;2022-10-26T08:37:37;13.50;99.90
74513;DHT22;62992;52.052;8.550;2022-10-26T08:40:29;13.40;99.90
74513;DHT22;62992;52.052;8.550;2022-10-26T08:43:29;13.20;99.90
74513;DHT22;62992;52.052;8.550;2022-10-26T08:46:16;13.00;99.90
74513;DHT22;62992;52.052;8.550;2022-10-26T08:49:24;13.10;99.90
74513;DHT22;62992;52.052;8.550;2022-10-26T08:52:13;12.90;99.90
74513;DHT22;62992;52.052;8.550;2022-10-26T08:54:59;12.80;99.90
74513;DHT22;62992;52.052;8.550;2022-10-26T08:57:47;12.70;99.90
74513;DHT22;62992;52.052;8.550;2022-10-26T09:00:32;13.00;99.90
74513;DHT22;62992;52.052;8.550;2022-10-26T09:03:17;13.10;99.90
74513;DHT22;62992;52.052;8.550;2022-10-26T09:09:06;13.40;99.90
74513;DHT22;62992;52.052;8.550;2022-10-26T09:12:06;13.70;99.90
74513;DHT22;62992;52.052;8.550;2022-10-26T09:18:22;13.80;99.90
74513;DHT22;62992;52.052;8.550;2022-10-26T09:24:33;14.20;99.90
74513;DHT22;62992;52.052;8.550;2022-10-26T09:27:31;15.10;99.90
74513;DHT22;62992;52.052;8.550;2022-10-26T09:30:20;15.00;99.90
74513;DHT22;62992;52.052;8.550;2022-10-26T09:33:13;15.70;99.90
74513;DHT22;62992;52.052;8.550;2022-10-26T09:36:02;17.00;99.90
74513;DHT22;62992;52.052;8.550;2022-10-26T09:39:45;15.70;99.90
74513;DHT22;62992;52.052;8.550;2022-10-26T09:42:23;15.20;99.90
74513;DHT22;62992;52.052;8.550;2022-10-26T09:50:59;17.40;99.90
74513;DHT22;62992;52.052;8.550;2022-10-26T09:53:43;16.80;99.90
74513;DHT22;62992;52.052;8.550;2022-10-26T09:56:29;17.30;99.90
74513;DHT22;62992;52.052;8.550;2022-10-26T09:59:15;17.80;99.90
74513;DHT22;62992;52.052;8.550;2022-10-26T10:02:30;18.10;99.90
74513;DHT22;62992;52.052;8.550;2022-10-26T10:05:25;18.00;99.90
74513;DHT22;62992;52.052;8.550;2022-10-26T10:11:09;18.10;99.90
74513;DHT22;62992;52.052;8.550;2022-10-26T10:13:54;18.10;99.90
74513;DHT22;62992;52.052;8.550;2022-10-26T10:16:38;18.40;99.90
74513;DHT22;62992;52.052;8.550;2022-10-26T10:19:25;17.60;99.90
74513;DHT22;62992;52.052;8.550;2022-10-26T10:22:17;17.80;99.90
74513;DHT22;62992;52.052;8.550;2022-10-26T10:25:03;18.40;99.90
74513;DHT22;62992;52.052;8.550;2022-10-26T10:27:52;18.20;99.90
74513;DHT22;62992;52.052;8.550;2022-10-26T10:30:37;17.90;99.90
74513;DHT22;62992;52.052;8.550;2022-10-26T10:33:21;17.70;99.90
74513;DHT22;62992;52.052;8.550;2022-10-26T10:36:14;18.00;99.90
74513;DHT22;62992;52.052;8.550;2022-10-26T10:38:58;18.70;99.90
74513;DHT22;62992;52.052;8.550;2022-10-26T10:41:44;18.80;99.90
74513;DHT22;62992;52.052;8.550;2022-10-26T10:44:30;19.50;99.90
74513;DHT22;62992;52.052;8.550;2022-10-26T10:47:34;18.80;99.90
74513;DHT22;62992;52.052;8.550;2022-10-26T10:50:19;18.50;99.90
74513;DHT22;62992;52.052;8.550;2022-10-26T11:08:47;18.20;99.90
74513;DHT22;62992;52.052;8.550;2022-10-26T11:14:39;18.40;99.90
74513;DHT22;62992;52.052;8.550;2022-10-26T11:18:05;18.30;99.90
74513;DHT22;62992;52.052;8.550;2022-10-26T11:20:57;18.20;99.90
74513;DHT22;62992;52.052;8.550;2022-10-26T11:24:10;18.40;99.90
74513;DHT22;62992;52.052;8.550;2022-10-26T11:27:17;18.50;99.90
74513;DHT22;62992;52.052;8.550;2022-10-26T11:30:05;18.80;99.90
74513;DHT22;62992;52.052;8.550;2022-10-26T11:33:02;18.90;99.90
74513;DHT22;62992;52.052;8.550;2022-10-26T11:42:08;19.10;99.90
74513;DHT22;62992;52.052;8.550;2022-10-26T11:45:16;19.10;99.90
74513;DHT22;62992;52.052;8.550;2022-10-26T11:48:27;19.10;99.90
74513;DHT22;62992;52.052;8.550;2022-10-26T11:54:28;18.80;99.90
74513;DHT22;62992;52.052;8.550;2022-10-26T11:57:15;18.80;99.90
74513;DHT22;62992;52.052;8.550;2022-10-26T12:00:06;18.80;99.90
74513;DHT22;62992;52.052;8.550;2022-10-26T12:03:02;18.80;99.90
74513;DHT22;62992;52.052;8.550;2022-10-26T12:05:50;18.70;99.90
74513;DHT22;62992;52.052;8.550;2022-10-26T12:08:39;18.70;99.90
74513;DHT22;62992;52.052;8.550;2022-10-26T12:14:42;18.70;99.90
74513;DHT22;62992;52.052;8.550;2022-10-26T12:23:38;18.70;99.90
74513;DHT22;62992;52.052;8.550;2022-10-26T12:41:23;18.20;99.90
74513;DHT22;62992;52.052;8.550;2022-10-26T12:44:37;18.20;99.90
74513;DHT22;62992;52.052;8.550;2022-10-26T12:53:05;18.60;99.90
74513;DHT22;62992;52.052;8.550;2022-10-26T12:56:02;18.60;99.90
74513;DHT22;62992;52.052;8.550;2022-10-26T13:08:17;18.50;99.90
74513;DHT22;62992;52.052;8.550;2022-10-26T13:11:04;18.50;99.90
74513;DHT22;62992;52.052;8.550;2022-10-26T13:13:59;18.60;99.90
74513;DHT22;62992;52.052;8.550;2022-10-26T13:16:45;18.60;99.90
74513;DHT22;62992;52.052;8.550;2022-10-26T13:19:40;18.70;99.90
74513;DHT22;62992;52.052;8.550;2022-10-26T13:22:25;18.70;99.90
74513;DHT22;62992;52.052;8.550;2022-10-26T13:25:25;18.80;99.90
74513;DHT22;62992;52.052;8.550;2022-10-26T13:28:31;18.90;99.90
74513;DHT22;62992;52.052;8.550;2022-10-26T13:34:20;19.00;99.90
74513;DHT22;62992;52.052;8.550;2022-10-26T13:37:20;19.00;99.90
74513;DHT22;62992;52.052;8.550;2022-10-26T13:40:07;19.10;99.90
74513;DHT22;62992;52.052;8.550;2022-10-26T13:43:01;19.00;99.90
74513;DHT22;62992;52.052;8.550;2022-10-26T13:45:59;19.00;99.90
74513;DHT22;62992;52.052;8.550;2022-10-26T13:48:45;18.90;99.90
74513;DHT22;62992;52.052;8.550;2022-10-26T13:51:49;18.90;99.90
74513;DHT22;62992;52.052;8.550;2022-10-26T13:54:48;19.10;99.90
74513;DHT22;62992;52.052;8.550;2022-10-26T13:57:42;19.10;99.90
74513;DHT22;62992;52.052;8.550;2022-10-26T14:00:26;19.10;99.90
74513;DHT22;62992;52.052;8.550;2022-10-26T14:03:16;18.90;99.90
74513;DHT22;62992;52.052;8.550;2022-10-26T14:06:34;18.80;99.90
74513;DHT22;62992;52.052;8.550;2022-10-26T14:09:20;18.70;99.90
74513;DHT22;62992;52.052;8.550;2022-10-26T14:12:08;18.70;99.90
74513;DHT22;62992;52.052;8.550;2022-10-26T14:15:00;18.70;99.90
74513;DHT22;62992;52.052;8.550;2022-10-26T14:17:49;18.60;99.90
74513;DHT22;62992;52.052;8.550;2022-10-26T14:20:33;18.60;99.90
74513;DHT22;62992;52.052;8.550;2022-10-26T14:23:34;18.60;99.90
74513;DHT22;62992;52.052;8.550;2022-10-26T14:26:21;18.50;99.90
74513;DHT22;62992;52.052;8.550;2022-10-26T14:29:15;18.50;99.90
74513;DHT22;62992;52.052;8.550;2022-10-26T14:32:19;18.50;99.90
74513;DHT22;62992;52.052;8.550;2022-10-26T14:35:03;18.50;99.90
74513;DHT22;62992;52.052;8.550;2022-10-26T14:37:57;18.40;99.90
74513;DHT22;62992;52.052;8.550;2022-10-26T14:40:42;18.20;99.90
74513;DHT22;62992;52.052;8.550;2022-10-26T14:43:27;18.20;99.90
74513;DHT22;62992;52.052;8.550;2022-10-26T14:46:16;18.20;99.90
74513;DHT22;62992;52.052;8.550;2022-10-26T14:49:02;18.30;99.90
74513;DHT22;62992;52.052;8.550;2022-10-26T14:51:47;18.20;99.90
74513;DHT22;62992;52.052;8.550;2022-10-26T14:54:33;18.20;99.90
74513;DHT22;62992;52.052;8.550;2022-10-26T14:57:35;18.20;99.90
74513;DHT22;62992;52.052;8.550;2022-10-26T15:00:23;18.10;99.90
74513;DHT22;62992;52.052;8.550;2022-10-26T15:03:13;18.10;99.90
74513;DHT22;62992;52.052;8.550;2022-10-26T15:09:30;18.00;99.90
74513;DHT22;62992;52.052;8.550;2022-10-26T15:15:20;18.00;99.90
74513;DHT22;62992;52.052;8.550;2022-10-26T15:18:22;17.90;99.90
74513;DHT22;62992;52.052;8.550;2022-10-26T15:21:31;17.80;99.90
74513;DHT22;62992;52.052;8.550;2022-10-26T15:27:13;17.70;99.90
74513;DHT22;62992;52.052;8.550;2022-10-26T15:30:18;17.60;99.90
74513;DHT22;62992;52.052;8.550;2022-10-26T15:33:19;17.60;99.90
74513;DHT22;62992;52.052;8.550;2022-10-26T15:38:51;17.50;99.90
74513;DHT22;62992;52.052;8.550;2022-10-26T15:41:37;17.40;99.90
74513;DHT22;62992;52.052;8.550;2022-10-26T15:44:27;17.30;99.90
74513;DHT22;62992;52.052;8.550;2022-10-26T15:47:16;17.30;99.90
74513;DHT22;62992;52.052;8.550;2022-10-26T15:50:00;17.20;99.90
74513;DHT22;62992;52.052;8.550;2022-10-26T15:52:45;17.10;99.90
74513;DHT22;62992;52.052;8.550;2022-10-26T15:55:29;17.20;99.90
74513;DHT22;62992;52.052;8.550;2022-10-26T15:58:14;17.10;99.90
74513;DHT22;62992;52.052;8.550;2022-10-26T16:00:58;17.10;99.90
74513;DHT22;62992;52.052;8.550;2022-10-26T16:03:42;16.90;99.90
74513;DHT22;62992;52.052;8.550;2022-10-26T16:06:32;16.80;99.90
74513;DHT22;62992;52.052;8.550;2022-10-26T16:09:17;16.80;99.90
74513;DHT22;62992;52.052;8.550;2022-10-26T16:12:02;16.70;99.90
74513;DHT22;62992;52.052;8.550;2022-10-26T16:14:46;16.60;99.90
74513;DHT22;62992;52.052;8.550;2022-10-26T16:17:30;16.60;99.90
74513;DHT22;62992;52.052;8.550;2022-10-26T16:20:20;16.60;99.90
74513;DHT22;62992;52.052;8.550;2022-10-26T16:23:05;16.60;99.90
74513;DHT22;62992;52.052;8.550;2022-10-26T16:25:50;16.60;99.90
74513;DHT22;62992;52.052;8.550;2022-10-26T16:28:34;16.50;99.90
74513;DHT22;62992;52.052;8.550;2022-10-26T16:31:19;16.50;99.90
74513;DHT22;62992;52.052;8.550;2022-10-26T16:34:05;16.50;99.90
74513;DHT22;62992;52.052;8.550;2022-10-26T16:36:49;16.40;99.90
74513;DHT22;62992;52.052;8.550;2022-10-26T16:39:33;16.40;99.90
74513;DHT22;62992;52.052;8.550;2022-10-26T16:42:17;16.40;99.90
74513;DHT22;62992;52.052;8.550;2022-10-26T16:45:02;16.40;99.90
74513;DHT22;62992;52.052;8.550;2022-10-26T16:47:46;16.40;99.90
74513;DHT22;62992;52.052;8.550;2022-10-26T16:50:30;16.30;99.90
74513;DHT22;62992;52.052;8.550;2022-10-26T16:53:14;16.20;99.90
74513;DHT22;62992;52.052;8.550;2022-10-26T16:56:10;16.20;99.90
74513;DHT22;62992;52.052;8.550;2022-10-26T16:58:55;16.30;99.90
74513;DHT22;62992;52.052;8.550;2022-10-26T17:01:39;16.30;99.90
74513;DHT22;62992;52.052;8.550;2022-10-26T17:04:24;16.40;99.90
74513;DHT22;62992;52.052;8.550;2022-10-26T17:07:09;16.30;99.90
74513;DHT22;62992;52.052;8.550;2022-10-26T17:09:54;16.20;99.90
74513;DHT22;62992;52.052;8.550;2022-10-26T17:12:38;16.10;99.90
74513;DHT22;62992;52.052;8.550;2022-10-26T17:15:22;16.00;99.90
74513;DHT22;62992;52.052;8.550;2022-10-26T17:18:06;16.00;99.90
74513;DHT22;62992;52.052;8.550;2022-10-26T17:20:52;16.00;99.90
74513;DHT22;62992;52.052;8.550;2022-10-26T17:23:36;16.00;99.90
74513;DHT22;62992;52.052;8.550;2022-10-26T17:26:21;16.00;99.90
74513;DHT22;62992;52.052;8.550;2022-10-26T17:29:06;15.90;99.90
74513;DHT22;62992;52.052;8.550;2022-10-26T17:31:50;15.80;99.90
74513;DHT22;62992;52.052;8.550;2022-10-26T17:34:34;15.80;99.90
74513;DHT22;62992;52.052;8.550;2022-10-26T17:37:18;15.70;99.90
74513;DHT22;62992;52.052;8.550;2022-10-26T17:40:03;15.70;99.90
74513;DHT22;62992;52.052;8.550;2022-10-26T17:42:47;15.80;99.90
74513;DHT22;62992;52.052;8.550;2022-10-26T17:45:31;15.70;99.90
74513;DHT22;62992;52.052;8.550;2022-10-26T17:48:16;15.70;99.90
74513;DHT22;62992;52.052;8.550;2022-10-26T17:51:01;15.70;99.90
74513;DHT22;62992;52.052;8.550;2022-10-26T17:53:46;15.70;99.90
74513;DHT22;62992;52.052;8.550;2022-10-26T17:56:32;15.80;99.90
74513;DHT22;62992;52.052;8.550;2022-10-26T17:59:16;15.80;99.90
74513;DHT22;62992;52.052;8.550;2022-10-26T18:02:02;15.80;99.90
74513;DHT22;62992;52.052;8.550;2022-10-26T18:04:46;15.80;99.90
74513;DHT22;62992;52.052;8.550;2022-10-26T18:07:30;15.90;99.90
74513;DHT22;62992;52.052;8.550;2022-10-26T18:10:14;15.80;99.90
74513;DHT22;62992;52.052;8.550;2022-10-26T18:12:58;15.80;99.90
74513;DHT22;62992;52.052;8.550;2022-10-26T18:15:42;15.60;99.90
74513;DHT22;62992;52.052;8.550;2022-10-26T18:18:26;15.50;99.90
74513;DHT22;62992;52.052;8.550;2022-10-26T18:21:12;15.40;99.90
74513;DHT22;62992;52.052;8.550;2022-10-26T18:23:56;15.20;99.90
74513;DHT22;62992;52.052;8.550;2022-10-26T18:26:40;15.20;99.90
74513;DHT22;62992;52.052;8.550;2022-10-26T18:29:24;15.30;99.90
74513;DHT22;62992;52.052;8.550;2022-10-26T18:32:08;15.30;99.90
74513;DHT22;62992;52.052;8.550;2022-10-26T18:34:52;15.10;99.90
74513;DHT22;62992;52.052;8.550;2022-10-26T18:37:37;15.10;99.90
74513;DHT22;62992;52.052;8.550;2022-10-26T18:40:21;15.10;99.90
74513;DHT22;62992;52.052;8.550;2022-10-26T18:43:05;15.10;99.90
74513;DHT22;62992;52.052;8.550;2022-10-26T18:45:49;14.90;99.90
74513;DHT22;62992;52.052;8.550;2022-10-26T18:48:34;14.90;99.90
74513;DHT22;62992;52.052;8.550;2022-10-26T18:51:24;14.90;99.90
74513;DHT22;62992;52.052;8.550;2022-10-26T18:54:08;14.80;99.90
74513;DHT22;62992;52.052;8.550;2022-10-26T18:56:53;14.80;99.90
74513;DHT22;62992;52.052;8.550;2022-10-26T18:59:37;14.80;99.90
74513;DHT22;62992;52.052;8.550;2022-10-26T19:02:21;14.70;99.90
74513;DHT22;62992;52.052;8.550;2022-10-26T19:05:06;14.60;99.90
74513;DHT22;62992;52.052;8.550;2022-10-26T19:07:50;14.60;99.90
74513;DHT22;62992;52.052;8.550;2022-10-26T19:10:34;14.70;99.90
74513;DHT22;62992;52.052;8.550;2022-10-26T19:13:18;14.80;99.90
74513;DHT22;62992;52.052;8.550;2022-10-26T19:16:22;14.80;99.90
74513;DHT22;62992;52.052;8.550;2022-10-26T19:19:07;14.80;99.90
74513;DHT22;62992;52.052;8.550;2022-10-26T19:21:54;14.90;99.90
74513;DHT22;62992;52.052;8.550;2022-10-26T19:24:39;15.00;99.90
74513;DHT22;62992;52.052;8.550;2022-10-26T19:27:23;15.00;99.90
74513;DHT22;62992;52.052;8.550;2022-10-26T19:30:07;15.10;99.90
74513;DHT22;62992;52.052;8.550;2022-10-26T19:32:52;15.10;99.90
74513;DHT22;62992;52.052;8.550;2022-10-26T19:35:36;15.20;99.90
74513;DHT22;62992;52.052;8.550;2022-10-26T19:38:20;15.20;99.90
74513;DHT22;62992;52.052;8.550;2022-10-26T19:41:07;15.10;99.90
74513;DHT22;62992;52.052;8.550;2022-10-26T19:43:56;15.10;99.90
74513;DHT22;62992;52.052;8.550;2022-10-26T19:46:40;15.10;99.90
74513;DHT22;62992;52.052;8.550;2022-10-26T19:49:25;15.10;99.90
74513;DHT22;62992;52.052;8.550;2022-10-26T19:52:09;14.90;99.90
74513;DHT22;62992;52.052;8.550;2022-10-26T19:54:53;15.00;99.90
74513;DHT22;62992;52.052;8.550;2022-10-26T19:57:37;14.90;99.90
74513;DHT22;62992;52.052;8.550;2022-10-26T20:00:21;15.00;99.90
74513;DHT22;62992;52.052;8.550;2022-10-26T20:03:07;15.10;99.90
74513;DHT22;62992;52.052;8.550;2022-10-26T20:05:58;15.10;99.90
74513;DHT22;62992;52.052;8.550;2022-10-26T20:08:45;15.00;99.90
74513;DHT22;62992;52.052;8.550;2022-10-26T20:11:30;15.00;99.90
74513;DHT22;62992;52.052;8.550;2022-10-26T20:14:19;15.10;99.90